sensor_id;sensor_type;location;lat;lon;timestamp;P1;durP1;ratioP1;P2;durP2;ratioP2
21758;SDS011;11041;50.854;20.580;2023-07-16T00:00:54;13.32;;;11.95;;
21758;SDS011;11041;50.854;20.580;2023-07-16T00:03:40;14.30;;;12.90;;
21758;SDS011;11041;50.854;20.580;2023-07-16T00:06:06;13.73;;;12.32;;
21758;SDS011;11041;50.854;20.580;2023-07-16T00:08:33;14.13;;;12.73;;
21758;SDS011;11041;50.854;20.580;2023-07-16T00:11:00;13.82;;;12.30;;
21758;SDS011;11041;50.854;20.580;2023-07-16T00:13:26;15.20;;;13.60;;
21758;SDS011;11041;50.854;20.580;2023-07-16T00:15:53;15.73;;;13.15;;
21758;SDS011;11041;50.854;20.580;2023-07-16T00:18:20;13.20;;;11.93;;
21758;SDS011;11041;50.854;20.580;2023-07-16T00:20:46;12.40;;;11.10;;
21758;SDS011;11041;50.854;20.580;2023-07-16T00:23:12;12.23;;;11.02;;
21758;SDS011;11041;50.854;20.580;2023-07-16T00:25:38;11.57;;;10.38;;
21758;SDS011;11041;50.854;20.580;2023-07-16T00:28:05;14.07;;;11.32;;
21758;SDS011;11041;50.854;20.580;2023-07-16T00:30:31;13.05;;;10.95;;
21758;SDS011;11041;50.854;20.580;2023-07-16T00:32:57;12.25;;;11.07;;
21758;SDS011;11041;50.854;20.580;2023-07-16T00:35:24;11.70;;;10.45;;
21758;SDS011;11041;50.854;20.580;2023-07-16T00:37:50;12.45;;;11.05;;
21758;SDS011;11041;50.854;20.580;2023-07-16T00:40:17;13.02;;;10.63;;
21758;SDS011;11041;50.854;20.580;2023-07-16T00:42:43;10.98;;;9.98;;
21758;SDS011;11041;50.854;20.580;2023-07-16T00:45:13;11.80;;;10.60;;
21758;SDS011;11041;50.854;20.580;2023-07-16T00:47:42;12.20;;;10.85;;
21758;SDS011;11041;50.854;20.580;2023-07-16T00:50:10;11.55;;;10.40;;
21758;SDS011;11041;50.854;20.580;2023-07-16T00:52:37;12.40;;;11.10;;
21758;SDS011;11041;50.854;20.580;2023-07-16T00:55:05;12.38;;;10.65;;
21758;SDS011;11041;50.854;20.580;2023-07-16T00:57:33;14.13;;;11.25;;
21758;SDS011;11041;50.854;20.580;2023-07-16T01:00:00;13.70;;;10.05;;
21758;SDS011;11041;50.854;20.580;2023-07-16T01:02:26;12.10;;;10.50;;
21758;SDS011;11041;50.854;20.580;2023-07-16T01:04:54;12.00;;;10.90;;
21758;SDS011;11041;50.854;20.580;2023-07-16T01:07:20;12.32;;;11.05;;
21758;SDS011;11041;50.854;20.580;2023-07-16T01:09:52;14.63;;;10.90;;
21758;SDS011;11041;50.854;20.580;2023-07-16T01:12:21;12.43;;;10.98;;
21758;SDS011;11041;50.854;20.580;2023-07-16T01:14:49;11.95;;;10.75;;
21758;SDS011;11041;50.854;20.580;2023-07-16T01:17:18;12.43;;;11.10;;
21758;SDS011;11041;50.854;20.580;2023-07-16T01:19:44;13.23;;;10.95;;
21758;SDS011;11041;50.854;20.580;2023-07-16T01:22:35;13.38;;;11.30;;
21758;SDS011;11041;50.854;20.580;2023-07-16T01:25:10;13.38;;;10.50;;
21758;SDS011;11041;50.854;20.580;2023-07-16T01:28:09;12.00;;;10.90;;
21758;SDS011;11041;50.854;20.580;2023-07-16T01:31:17;13.18;;;10.85;;
21758;SDS011;11041;50.854;20.580;2023-07-16T01:33:44;11.88;;;10.68;;
21758;SDS011;11041;50.854;20.580;2023-07-16T01:36:12;15.95;;;11.13;;
21758;SDS011;11041;50.854;20.580;2023-07-16T01:38:40;12.57;;;10.98;;
21758;SDS011;11041;50.854;20.580;2023-07-16T01:41:06;12.20;;;11.10;;
21758;SDS011;11041;50.854;20.580;2023-07-16T01:43:33;12.70;;;10.00;;
21758;SDS011;11041;50.854;20.580;2023-07-16T01:45:59;13.13;;;11.93;;
21758;SDS011;11041;50.854;20.580;2023-07-16T01:51:03;13.50;;;12.10;;
21758;SDS011;11041;50.854;20.580;2023-07-16T01:53:30;14.25;;;12.05;;
21758;SDS011;11041;50.854;20.580;2023-07-16T01:55:57;12.52;;;11.38;;
21758;SDS011;11041;50.854;20.580;2023-07-16T01:58:26;13.52;;;12.13;;
21758;SDS011;11041;50.854;20.580;2023-07-16T02:00:52;13.57;;;12.27;;
21758;SDS011;11041;50.854;20.580;2023-07-16T02:03:18;13.73;;;12.30;;
21758;SDS011;11041;50.854;20.580;2023-07-16T02:05:45;15.05;;;13.55;;
21758;SDS011;11041;50.854;20.580;2023-07-16T02:08:11;14.25;;;12.75;;
21758;SDS011;11041;50.854;20.580;2023-07-16T02:10:42;13.35;;;11.90;;
21758;SDS011;11041;50.854;20.580;2023-07-16T02:13:09;13.43;;;12.02;;
21758;SDS011;11041;50.854;20.580;2023-07-16T02:15:35;13.90;;;12.60;;
21758;SDS011;11041;50.854;20.580;2023-07-16T02:18:02;14.05;;;12.70;;
21758;SDS011;11041;50.854;20.580;2023-07-16T02:20:30;16.52;;;12.00;;
21758;SDS011;11041;50.854;20.580;2023-07-16T02:22:56;24.65;;;22.10;;
21758;SDS011;11041;50.854;20.580;2023-07-16T02:25:22;19.67;;;17.58;;
21758;SDS011;11041;50.854;20.580;2023-07-16T02:27:49;15.63;;;14.18;;
21758;SDS011;11041;50.854;20.580;2023-07-16T02:30:15;16.23;;;14.52;;
21758;SDS011;11041;50.854;20.580;2023-07-16T02:32:41;15.38;;;13.80;;
21758;SDS011;11041;50.854;20.580;2023-07-16T02:35:08;16.17;;;13.85;;
21758;SDS011;11041;50.854;20.580;2023-07-16T02:37:35;15.20;;;13.70;;
21758;SDS011;11041;50.854;20.580;2023-07-16T02:40:01;14.20;;;12.68;;
21758;SDS011;11041;50.854;20.580;2023-07-16T02:42:28;14.77;;;13.30;;
21758;SDS011;11041;50.854;20.580;2023-07-16T02:44:55;15.15;;;12.70;;
21758;SDS011;11041;50.854;20.580;2023-07-16T02:47:21;13.43;;;12.02;;
21758;SDS011;11041;50.854;20.580;2023-07-16T02:49:50;15.18;;;13.57;;
21758;SDS011;11041;50.854;20.580;2023-07-16T02:52:17;14.57;;;13.18;;
21758;SDS011;11041;50.854;20.580;2023-07-16T02:54:44;15.45;;;12.82;;
21758;SDS011;11041;50.854;20.580;2023-07-16T02:57:10;13.73;;;12.35;;
21758;SDS011;11041;50.854;20.580;2023-07-16T02:59:37;14.52;;;13.00;;
21758;SDS011;11041;50.854;20.580;2023-07-16T03:02:03;14.38;;;12.73;;
21758;SDS011;11041;50.854;20.580;2023-07-16T03:04:30;13.23;;;11.90;;
21758;SDS011;11041;50.854;20.580;2023-07-16T03:06:56;14.25;;;11.82;;
21758;SDS011;11041;50.854;20.580;2023-07-16T03:09:22;13.38;;;12.02;;
21758;SDS011;11041;50.854;20.580;2023-07-16T03:11:49;13.52;;;12.13;;
21758;SDS011;11041;50.854;20.580;2023-07-16T03:14:15;14.45;;;13.05;;
21758;SDS011;11041;50.854;20.580;2023-07-16T03:16:41;14.02;;;12.63;;
21758;SDS011;11041;50.854;20.580;2023-07-16T03:19:08;12.73;;;11.50;;
21758;SDS011;11041;50.854;20.580;2023-07-16T03:21:34;13.38;;;11.95;;
21758;SDS011;11041;50.854;20.580;2023-07-16T03:24:00;12.80;;;11.27;;
21758;SDS011;11041;50.854;20.580;2023-07-16T03:26:26;13.27;;;11.95;;
21758;SDS011;11041;50.854;20.580;2023-07-16T03:28:53;13.05;;;11.85;;
21758;SDS011;11041;50.854;20.580;2023-07-16T03:31:20;13.40;;;12.10;;
21758;SDS011;11041;50.854;20.580;2023-07-16T03:33:47;13.18;;;11.75;;
21758;SDS011;11041;50.854;20.580;2023-07-16T03:36:13;13.20;;;11.93;;
21758;SDS011;11041;50.854;20.580;2023-07-16T03:38:39;13.15;;;11.55;;
21758;SDS011;11041;50.854;20.580;2023-07-16T03:41:05;12.88;;;11.55;;
21758;SDS011;11041;50.854;20.580;2023-07-16T03:43:32;12.52;;;11.23;;
21758;SDS011;11041;50.854;20.580;2023-07-16T03:45:58;13.07;;;11.63;;
21758;SDS011;11041;50.854;20.580;2023-07-16T03:48:24;13.23;;;11.80;;
21758;SDS011;11041;50.854;20.580;2023-07-16T03:50:50;13.15;;;11.85;;
21758;SDS011;11041;50.854;20.580;2023-07-16T03:53:17;12.65;;;11.38;;
21758;SDS011;11041;50.854;20.580;2023-07-16T03:55:43;11.70;;;10.70;;
21758;SDS011;11041;50.854;20.580;2023-07-16T03:58:10;12.73;;;11.43;;
21758;SDS011;11041;50.854;20.580;2023-07-16T04:00:36;11.85;;;10.85;;
21758;SDS011;11041;50.854;20.580;2023-07-16T04:03:02;12.00;;;10.80;;
21758;SDS011;11041;50.854;20.580;2023-07-16T04:05:28;12.98;;;11.68;;
21758;SDS011;11041;50.854;20.580;2023-07-16T04:07:55;11.45;;;10.35;;
21758;SDS011;11041;50.854;20.580;2023-07-16T04:10:21;11.88;;;10.55;;
21758;SDS011;11041;50.854;20.580;2023-07-16T04:12:47;11.93;;;10.55;;
21758;SDS011;11041;50.854;20.580;2023-07-16T04:15:13;12.32;;;11.02;;
21758;SDS011;11041;50.854;20.580;2023-07-16T04:17:40;11.38;;;10.27;;
21758;SDS011;11041;50.854;20.580;2023-07-16T04:20:06;10.90;;;9.93;;
21758;SDS011;11041;50.854;20.580;2023-07-16T04:22:34;10.75;;;9.75;;
21758;SDS011;11041;50.854;20.580;2023-07-16T04:25:01;11.02;;;9.60;;
21758;SDS011;11041;50.854;20.580;2023-07-16T04:27:29;11.02;;;9.95;;
21758;SDS011;11041;50.854;20.580;2023-07-16T04:29:55;11.73;;;9.73;;
21758;SDS011;11041;50.854;20.580;2023-07-16T04:32:22;10.38;;;9.38;;
21758;SDS011;11041;50.854;20.580;2023-07-16T04:34:48;10.68;;;9.70;;
21758;SDS011;11041;50.854;20.580;2023-07-16T04:37:15;9.98;;;9.05;;
21758;SDS011;11041;50.854;20.580;2023-07-16T04:39:41;10.35;;;8.88;;
21758;SDS011;11041;50.854;20.580;2023-07-16T04:42:07;9.55;;;8.43;;
21758;SDS011;11041;50.854;20.580;2023-07-16T04:44:33;9.57;;;8.57;;
21758;SDS011;11041;50.854;20.580;2023-07-16T04:47:00;9.52;;;8.63;;
21758;SDS011;11041;50.854;20.580;2023-07-16T04:49:26;9.73;;;8.65;;
21758;SDS011;11041;50.854;20.580;2023-07-16T04:51:52;9.13;;;8.32;;
21758;SDS011;11041;50.854;20.580;2023-07-16T04:54:18;11.27;;;8.57;;
21758;SDS011;11041;50.854;20.580;2023-07-16T04:56:45;8.95;;;8.10;;
21758;SDS011;11041;50.854;20.580;2023-07-16T04:59:11;9.48;;;8.57;;
21758;SDS011;11041;50.854;20.580;2023-07-16T05:01:37;8.50;;;7.80;;
21758;SDS011;11041;50.854;20.580;2023-07-16T05:04:04;8.77;;;7.78;;
21758;SDS011;11041;50.854;20.580;2023-07-16T05:06:31;8.48;;;7.78;;
21758;SDS011;11041;50.854;20.580;2023-07-16T05:08:57;9.88;;;8.35;;
21758;SDS011;11041;50.854;20.580;2023-07-16T05:11:23;9.93;;;7.95;;
21758;SDS011;11041;50.854;20.580;2023-07-16T05:13:51;8.40;;;7.60;;
21758;SDS011;11041;50.854;20.580;2023-07-16T05:16:17;10.20;;;8.57;;
21758;SDS011;11041;50.854;20.580;2023-07-16T05:18:43;8.70;;;7.90;;
21758;SDS011;11041;50.854;20.580;2023-07-16T05:21:10;9.00;;;7.80;;
21758;SDS011;11041;50.854;20.580;2023-07-16T05:23:36;11.30;;;7.88;;
21758;SDS011;11041;50.854;20.580;2023-07-16T05:26:03;8.77;;;7.97;;
21758;SDS011;11041;50.854;20.580;2023-07-16T05:28:32;8.93;;;8.02;;
21758;SDS011;11041;50.854;20.580;2023-07-16T05:31:00;8.75;;;7.85;;
21758;SDS011;11041;50.854;20.580;2023-07-16T05:33:27;8.40;;;7.70;;
21758;SDS011;11041;50.854;20.580;2023-07-16T05:35:54;8.98;;;8.13;;
21758;SDS011;11041;50.854;20.580;2023-07-16T05:38:20;8.32;;;7.38;;
21758;SDS011;11041;50.854;20.580;2023-07-16T05:40:47;7.95;;;7.35;;
21758;SDS011;11041;50.854;20.580;2023-07-16T05:43:13;8.27;;;7.57;;
21758;SDS011;11041;50.854;20.580;2023-07-16T05:45:40;10.85;;;7.97;;
21758;SDS011;11041;50.854;20.580;2023-07-16T05:48:06;8.10;;;7.32;;
21758;SDS011;11041;50.854;20.580;2023-07-16T05:50:33;8.48;;;7.68;;
21758;SDS011;11041;50.854;20.580;2023-07-16T05:52:59;9.68;;;7.28;;
21758;SDS011;11041;50.854;20.580;2023-07-16T05:55:26;8.80;;;8.00;;
21758;SDS011;11041;50.854;20.580;2023-07-16T05:57:52;8.40;;;7.60;;
21758;SDS011;11041;50.854;20.580;2023-07-16T06:00:19;9.80;;;7.63;;
21758;SDS011;11041;50.854;20.580;2023-07-16T06:02:45;8.20;;;7.40;;
21758;SDS011;11041;50.854;20.580;2023-07-16T06:05:11;7.95;;;7.15;;
21758;SDS011;11041;50.854;20.580;2023-07-16T06:07:38;11.57;;;7.55;;
21758;SDS011;11041;50.854;20.580;2023-07-16T06:10:04;8.80;;;7.82;;
21758;SDS011;11041;50.854;20.580;2023-07-16T06:12:32;11.52;;;8.35;;
21758;SDS011;11041;50.854;20.580;2023-07-16T06:14:58;8.75;;;7.50;;
21758;SDS011;11041;50.854;20.580;2023-07-16T06:17:25;7.75;;;7.03;;
21758;SDS011;11041;50.854;20.580;2023-07-16T06:19:51;8.50;;;6.93;;
21758;SDS011;11041;50.854;20.580;2023-07-16T06:22:17;7.85;;;7.07;;
21758;SDS011;11041;50.854;20.580;2023-07-16T06:24:43;7.50;;;6.82;;
21758;SDS011;11041;50.854;20.580;2023-07-16T06:27:09;7.47;;;6.78;;
21758;SDS011;11041;50.854;20.580;2023-07-16T06:29:36;7.72;;;6.93;;
21758;SDS011;11041;50.854;20.580;2023-07-16T06:32:02;8.38;;;7.35;;
21758;SDS011;11041;50.854;20.580;2023-07-16T06:34:29;7.47;;;6.70;;
21758;SDS011;11041;50.854;20.580;2023-07-16T06:36:56;7.40;;;6.72;;
21758;SDS011;11041;50.854;20.580;2023-07-16T06:39:23;8.80;;;7.95;;
21758;SDS011;11041;50.854;20.580;2023-07-16T06:41:49;7.93;;;7.28;;
21758;SDS011;11041;50.854;20.580;2023-07-16T06:44:16;7.38;;;6.75;;
21758;SDS011;11041;50.854;20.580;2023-07-16T06:46:42;7.95;;;7.13;;
21758;SDS011;11041;50.854;20.580;2023-07-16T06:49:09;8.00;;;7.22;;
21758;SDS011;11041;50.854;20.580;2023-07-16T06:51:35;7.80;;;7.10;;
21758;SDS011;11041;50.854;20.580;2023-07-16T06:54:01;8.27;;;7.47;;
21758;SDS011;11041;50.854;20.580;2023-07-16T06:56:28;10.73;;;6.78;;
21758;SDS011;11041;50.854;20.580;2023-07-16T06:58:54;7.55;;;6.80;;
21758;SDS011;11041;50.854;20.580;2023-07-16T07:01:21;11.32;;;7.25;;
21758;SDS011;11041;50.854;20.580;2023-07-16T07:03:47;8.13;;;7.35;;
21758;SDS011;11041;50.854;20.580;2023-07-16T07:06:13;10.70;;;6.95;;
21758;SDS011;11041;50.854;20.580;2023-07-16T07:08:40;6.88;;;6.38;;
21758;SDS011;11041;50.854;20.580;2023-07-16T07:11:06;7.60;;;6.80;;
21758;SDS011;11041;50.854;20.580;2023-07-16T07:13:32;8.60;;;6.85;;
21758;SDS011;11041;50.854;20.580;2023-07-16T07:15:58;7.90;;;7.18;;
21758;SDS011;11041;50.854;20.580;2023-07-16T07:18:25;9.02;;;7.25;;
21758;SDS011;11041;50.854;20.580;2023-07-16T07:20:51;10.82;;;6.80;;
21758;SDS011;11041;50.854;20.580;2023-07-16T07:23:18;10.30;;;6.88;;
21758;SDS011;11041;50.854;20.580;2023-07-16T07:25:48;8.30;;;7.30;;
21758;SDS011;11041;50.854;20.580;2023-07-16T07:28:16;8.50;;;7.65;;
21758;SDS011;11041;50.854;20.580;2023-07-16T07:30:44;9.07;;;7.53;;
21758;SDS011;11041;50.854;20.580;2023-07-16T07:33:11;11.00;;;7.93;;
21758;SDS011;11041;50.854;20.580;2023-07-16T07:35:37;8.98;;;7.95;;
21758;SDS011;11041;50.854;20.580;2023-07-16T07:38:04;9.77;;;7.30;;
21758;SDS011;11041;50.854;20.580;2023-07-16T07:40:30;7.63;;;7.03;;
21758;SDS011;11041;50.854;20.580;2023-07-16T07:42:56;7.28;;;6.78;;
21758;SDS011;11041;50.854;20.580;2023-07-16T07:45:23;7.35;;;6.65;;
21758;SDS011;11041;50.854;20.580;2023-07-16T07:47:50;9.75;;;7.13;;
21758;SDS011;11041;50.854;20.580;2023-07-16T07:50:16;7.82;;;5.95;;
21758;SDS011;11041;50.854;20.580;2023-07-16T07:52:43;7.10;;;6.40;;
21758;SDS011;11041;50.854;20.580;2023-07-16T07:55:09;9.95;;;6.45;;
21758;SDS011;11041;50.854;20.580;2023-07-16T07:57:35;7.35;;;6.65;;
21758;SDS011;11041;50.854;20.580;2023-07-16T08:00:02;8.65;;;6.82;;
21758;SDS011;11041;50.854;20.580;2023-07-16T08:02:29;7.03;;;6.20;;
21758;SDS011;11041;50.854;20.580;2023-07-16T08:04:55;8.73;;;6.82;;
21758;SDS011;11041;50.854;20.580;2023-07-16T08:07:22;8.75;;;6.22;;
21758;SDS011;11041;50.854;20.580;2023-07-16T08:09:48;6.20;;;5.65;;
21758;SDS011;11041;50.854;20.580;2023-07-16T08:12:15;6.70;;;6.13;;
21758;SDS011;11041;50.854;20.580;2023-07-16T08:14:41;6.20;;;5.60;;
21758;SDS011;11041;50.854;20.580;2023-07-16T08:17:07;7.13;;;6.40;;
21758;SDS011;11041;50.854;20.580;2023-07-16T08:19:33;6.75;;;6.03;;
21758;SDS011;11041;50.854;20.580;2023-07-16T08:22:00;6.22;;;5.63;;
21758;SDS011;11041;50.854;20.580;2023-07-16T08:24:26;6.40;;;5.80;;
21758;SDS011;11041;50.854;20.580;2023-07-16T08:26:53;6.50;;;5.95;;
21758;SDS011;11041;50.854;20.580;2023-07-16T08:29:19;8.40;;;6.07;;
21758;SDS011;11041;50.854;20.580;2023-07-16T08:31:45;6.28;;;5.68;;
21758;SDS011;11041;50.854;20.580;2023-07-16T08:34:11;6.18;;;5.68;;
21758;SDS011;11041;50.854;20.580;2023-07-16T08:36:38;6.85;;;6.35;;
21758;SDS011;11041;50.854;20.580;2023-07-16T08:39:04;6.82;;;6.13;;
21758;SDS011;11041;50.854;20.580;2023-07-16T08:41:31;10.13;;;6.57;;
21758;SDS011;11041;50.854;20.580;2023-07-16T08:43:57;6.53;;;5.93;;
21758;SDS011;11041;50.854;20.580;2023-07-16T08:46:24;6.93;;;6.15;;
21758;SDS011;11041;50.854;20.580;2023-07-16T08:48:51;6.95;;;6.22;;
21758;SDS011;11041;50.854;20.580;2023-07-16T08:51:19;9.88;;;6.95;;
21758;SDS011;11041;50.854;20.580;2023-07-16T08:53:47;7.10;;;6.47;;
21758;SDS011;11041;50.854;20.580;2023-07-16T08:56:14;6.68;;;6.18;;
21758;SDS011;11041;50.854;20.580;2023-07-16T08:58:41;10.63;;;6.35;;
21758;SDS011;11041;50.854;20.580;2023-07-16T09:01:13;9.30;;;6.18;;
21758;SDS011;11041;50.854;20.580;2023-07-16T09:03:42;7.32;;;6.40;;
21758;SDS011;11041;50.854;20.580;2023-07-16T09:06:09;7.20;;;6.32;;
21758;SDS011;11041;50.854;20.580;2023-07-16T09:08:35;6.88;;;6.22;;
21758;SDS011;11041;50.854;20.580;2023-07-16T09:11:01;7.55;;;6.60;;
21758;SDS011;11041;50.854;20.580;2023-07-16T09:13:28;8.38;;;7.13;;
21758;SDS011;11041;50.854;20.580;2023-07-16T09:15:56;8.93;;;6.85;;
21758;SDS011;11041;50.854;20.580;2023-07-16T09:18:24;6.95;;;6.35;;
21758;SDS011;11041;50.854;20.580;2023-07-16T09:20:54;7.75;;;7.00;;
21758;SDS011;11041;50.854;20.580;2023-07-16T09:23:27;8.45;;;7.65;;
21758;SDS011;11041;50.854;20.580;2023-07-16T09:25:56;8.35;;;7.30;;
21758;SDS011;11041;50.854;20.580;2023-07-16T09:28:22;9.18;;;7.45;;
21758;SDS011;11041;50.854;20.580;2023-07-16T09:30:52;8.23;;;7.43;;
21758;SDS011;11041;50.854;20.580;2023-07-16T09:33:19;9.27;;;7.93;;
21758;SDS011;11041;50.854;20.580;2023-07-16T09:35:48;12.30;;;7.55;;
21758;SDS011;11041;50.854;20.580;2023-07-16T09:38:16;8.63;;;7.75;;
21758;SDS011;11041;50.854;20.580;2023-07-16T09:40:44;8.93;;;7.75;;
21758;SDS011;11041;50.854;20.580;2023-07-16T09:43:11;8.40;;;7.70;;
21758;SDS011;11041;50.854;20.580;2023-07-16T09:45:39;10.55;;;7.68;;
21758;SDS011;11041;50.854;20.580;2023-07-16T09:48:06;10.05;;;7.82;;
21758;SDS011;11041;50.854;20.580;2023-07-16T09:50:33;8.50;;;7.60;;
21758;SDS011;11041;50.854;20.580;2023-07-16T09:53:03;8.70;;;7.90;;
21758;SDS011;11041;50.854;20.580;2023-07-16T09:55:31;8.82;;;7.47;;
21758;SDS011;11041;50.854;20.580;2023-07-16T09:58:02;7.80;;;7.00;;
21758;SDS011;11041;50.854;20.580;2023-07-16T10:00:35;9.27;;;7.80;;
21758;SDS011;11041;50.854;20.580;2023-07-16T10:03:08;8.30;;;7.43;;
21758;SDS011;11041;50.854;20.580;2023-07-16T10:05:35;8.93;;;7.47;;
21758;SDS011;11041;50.854;20.580;2023-07-16T10:08:03;10.60;;;7.95;;
21758;SDS011;11041;50.854;20.580;2023-07-16T10:10:40;8.57;;;7.68;;
21758;SDS011;11041;50.854;20.580;2023-07-16T10:13:13;9.00;;;8.07;;
21758;SDS011;11041;50.854;20.580;2023-07-16T10:15:54;8.52;;;7.65;;
21758;SDS011;11041;50.854;20.580;2023-07-16T10:21:06;11.75;;;8.32;;
21758;SDS011;11041;50.854;20.580;2023-07-16T10:23:43;10.20;;;8.18;;
21758;SDS011;11041;50.854;20.580;2023-07-16T10:26:11;10.40;;;7.38;;
21758;SDS011;11041;50.854;20.580;2023-07-16T10:28:40;8.38;;;7.65;;
21758;SDS011;11041;50.854;20.580;2023-07-16T10:31:16;8.15;;;7.45;;
21758;SDS011;11041;50.854;20.580;2023-07-16T10:34:00;8.23;;;7.30;;
21758;SDS011;11041;50.854;20.580;2023-07-16T10:36:36;9.13;;;7.05;;
21758;SDS011;11041;50.854;20.580;2023-07-16T10:39:04;9.43;;;7.43;;
21758;SDS011;11041;50.854;20.580;2023-07-16T10:41:31;8.35;;;7.57;;
21758;SDS011;11041;50.854;20.580;2023-07-16T10:43:59;11.40;;;7.63;;
21758;SDS011;11041;50.854;20.580;2023-07-16T10:46:26;8.40;;;7.60;;
21758;SDS011;11041;50.854;20.580;2023-07-16T10:48:53;8.65;;;7.95;;
21758;SDS011;11041;50.854;20.580;2023-07-16T10:51:24;9.15;;;8.15;;
21758;SDS011;11041;50.854;20.580;2023-07-16T10:53:54;9.55;;;7.65;;
21758;SDS011;11041;50.854;20.580;2023-07-16T10:56:22;9.10;;;8.18;;
21758;SDS011;11041;50.854;20.580;2023-07-16T10:58:49;10.18;;;8.27;;
21758;SDS011;11041;50.854;20.580;2023-07-16T11:01:16;10.05;;;7.95;;
21758;SDS011;11041;50.854;20.580;2023-07-16T11:03:42;9.40;;;7.63;;
21758;SDS011;11041;50.854;20.580;2023-07-16T11:06:09;8.43;;;7.20;;
21758;SDS011;11041;50.854;20.580;2023-07-16T11:08:37;9.07;;;7.97;;
21758;SDS011;11041;50.854;20.580;2023-07-16T11:11:04;8.77;;;6.97;;
21758;SDS011;11041;50.854;20.580;2023-07-16T11:13:33;9.88;;;7.90;;
21758;SDS011;11041;50.854;20.580;2023-07-16T11:16:06;8.77;;;7.40;;
21758;SDS011;11041;50.854;20.580;2023-07-16T11:18:36;8.30;;;7.38;;
21758;SDS011;11041;50.854;20.580;2023-07-16T11:21:03;7.70;;;6.95;;
21758;SDS011;11041;50.854;20.580;2023-07-16T11:23:29;8.65;;;7.68;;
21758;SDS011;11041;50.854;20.580;2023-07-16T11:26:01;8.52;;;7.38;;
21758;SDS011;11041;50.854;20.580;2023-07-16T11:28:35;8.70;;;7.18;;
21758;SDS011;11041;50.854;20.580;2023-07-16T11:31:16;9.80;;;8.45;;
21758;SDS011;11041;50.854;20.580;2023-07-16T11:33:45;9.35;;;7.25;;
21758;SDS011;11041;50.854;20.580;2023-07-16T11:36:13;8.30;;;6.82;;
21758;SDS011;11041;50.854;20.580;2023-07-16T11:38:39;9.25;;;7.60;;
21758;SDS011;11041;50.854;20.580;2023-07-16T11:41:06;8.80;;;7.82;;
21758;SDS011;11041;50.854;20.580;2023-07-16T11:43:35;8.75;;;6.78;;
21758;SDS011;11041;50.854;20.580;2023-07-16T11:46:02;8.70;;;7.10;;
21758;SDS011;11041;50.854;20.580;2023-07-16T11:48:39;9.85;;;7.85;;
21758;SDS011;11041;50.854;20.580;2023-07-16T11:51:05;8.43;;;7.63;;
21758;SDS011;11041;50.854;20.580;2023-07-16T11:53:32;7.75;;;7.15;;
21758;SDS011;11041;50.854;20.580;2023-07-16T11:55:58;8.20;;;6.70;;
21758;SDS011;11041;50.854;20.580;2023-07-16T11:58:24;8.02;;;7.25;;
21758;SDS011;11041;50.854;20.580;2023-07-16T12:00:51;8.40;;;7.70;;
21758;SDS011;11041;50.854;20.580;2023-07-16T12:03:17;7.10;;;6.50;;
21758;SDS011;11041;50.854;20.580;2023-07-16T12:05:43;7.13;;;6.45;;
21758;SDS011;11041;50.854;20.580;2023-07-16T12:08:09;9.00;;;7.38;;
21758;SDS011;11041;50.854;20.580;2023-07-16T12:10:40;7.72;;;6.68;;
21758;SDS011;11041;50.854;20.580;2023-07-16T12:13:06;7.60;;;6.80;;
21758;SDS011;11041;50.854;20.580;2023-07-16T12:15:33;7.80;;;7.20;;
21758;SDS011;11041;50.854;20.580;2023-07-16T12:18:00;7.90;;;7.18;;
21758;SDS011;11041;50.854;20.580;2023-07-16T12:20:26;9.43;;;6.97;;
21758;SDS011;11041;50.854;20.580;2023-07-16T12:22:52;8.30;;;7.40;;
21758;SDS011;11041;50.854;20.580;2023-07-16T12:25:22;7.00;;;6.28;;
21758;SDS011;11041;50.854;20.580;2023-07-16T12:27:48;7.82;;;7.13;;
21758;SDS011;11041;50.854;20.580;2023-07-16T12:30:14;7.80;;;6.32;;
21758;SDS011;11041;50.854;20.580;2023-07-16T12:32:40;7.28;;;6.57;;
21758;SDS011;11041;50.854;20.580;2023-07-16T12:35:07;6.70;;;6.20;;
21758;SDS011;11041;50.854;20.580;2023-07-16T12:37:33;10.65;;;6.10;;
21758;SDS011;11041;50.854;20.580;2023-07-16T12:39:59;6.35;;;5.75;;
21758;SDS011;11041;50.854;20.580;2023-07-16T12:42:25;6.55;;;5.75;;
21758;SDS011;11041;50.854;20.580;2023-07-16T12:44:53;8.23;;;5.72;;
21758;SDS011;11041;50.854;20.580;2023-07-16T12:47:19;9.02;;;6.00;;
21758;SDS011;11041;50.854;20.580;2023-07-16T12:49:46;7.90;;;5.85;;
21758;SDS011;11041;50.854;20.580;2023-07-16T12:52:12;9.27;;;6.43;;
21758;SDS011;11041;50.854;20.580;2023-07-16T12:54:38;6.78;;;6.18;;
21758;SDS011;11041;50.854;20.580;2023-07-16T12:57:04;6.47;;;5.93;;
21758;SDS011;11041;50.854;20.580;2023-07-16T12:59:31;6.82;;;6.13;;
21758;SDS011;11041;50.854;20.580;2023-07-16T13:01:58;6.43;;;5.82;;
21758;SDS011;11041;50.854;20.580;2023-07-16T13:04:25;6.20;;;5.60;;
21758;SDS011;11041;50.854;20.580;2023-07-16T13:06:51;7.22;;;5.50;;
21758;SDS011;11041;50.854;20.580;2023-07-16T13:09:18;7.03;;;5.47;;
21758;SDS011;11041;50.854;20.580;2023-07-16T13:11:44;7.32;;;5.50;;
21758;SDS011;11041;50.854;20.580;2023-07-16T13:14:11;5.82;;;5.25;;
21758;SDS011;11041;50.854;20.580;2023-07-16T13:16:37;5.95;;;5.43;;
21758;SDS011;11041;50.854;20.580;2023-07-16T13:19:04;5.22;;;4.72;;
21758;SDS011;11041;50.854;20.580;2023-07-16T13:21:30;6.05;;;5.43;;
21758;SDS011;11041;50.854;20.580;2023-07-16T13:23:56;6.50;;;5.25;;
21758;SDS011;11041;50.854;20.580;2023-07-16T13:26:22;7.38;;;5.28;;
21758;SDS011;11041;50.854;20.580;2023-07-16T13:28:49;5.50;;;4.97;;
21758;SDS011;11041;50.854;20.580;2023-07-16T13:31:15;7.10;;;5.00;;
21758;SDS011;11041;50.854;20.580;2023-07-16T13:33:42;6.03;;;5.45;;
21758;SDS011;11041;50.854;20.580;2023-07-16T13:36:08;7.20;;;5.40;;
21758;SDS011;11041;50.854;20.580;2023-07-16T13:38:35;5.63;;;4.82;;
21758;SDS011;11041;50.854;20.580;2023-07-16T13:41:01;7.55;;;5.13;;
21758;SDS011;11041;50.854;20.580;2023-07-16T13:43:28;5.72;;;5.00;;
21758;SDS011;11041;50.854;20.580;2023-07-16T13:45:55;5.05;;;4.65;;
21758;SDS011;11041;50.854;20.580;2023-07-16T13:48:21;6.05;;;4.75;;
21758;SDS011;11041;50.854;20.580;2023-07-16T13:50:48;5.25;;;4.70;;
21758;SDS011;11041;50.854;20.580;2023-07-16T13:53:14;6.43;;;5.15;;
21758;SDS011;11041;50.854;20.580;2023-07-16T13:55:41;5.65;;;5.03;;
21758;SDS011;11041;50.854;20.580;2023-07-16T13:58:09;7.72;;;4.75;;
21758;SDS011;11041;50.854;20.580;2023-07-16T14:00:36;7.35;;;5.10;;
21758;SDS011;11041;50.854;20.580;2023-07-16T14:03:03;5.47;;;4.97;;
21758;SDS011;11041;50.854;20.580;2023-07-16T14:05:29;6.85;;;5.72;;
21758;SDS011;11041;50.854;20.580;2023-07-16T14:07:55;4.90;;;4.50;;
21758;SDS011;11041;50.854;20.580;2023-07-16T14:10:21;5.53;;;4.82;;
21758;SDS011;11041;50.854;20.580;2023-07-16T14:12:48;5.13;;;4.70;;
21758;SDS011;11041;50.854;20.580;2023-07-16T14:15:15;5.22;;;4.57;;
21758;SDS011;11041;50.854;20.580;2023-07-16T14:17:41;5.75;;;5.13;;
21758;SDS011;11041;50.854;20.580;2023-07-16T14:20:07;5.45;;;4.47;;
21758;SDS011;11041;50.854;20.580;2023-07-16T14:22:37;7.28;;;4.90;;
21758;SDS011;11041;50.854;20.580;2023-07-16T14:25:03;5.43;;;4.88;;
21758;SDS011;11041;50.854;20.580;2023-07-16T14:27:30;6.20;;;5.40;;
21758;SDS011;11041;50.854;20.580;2023-07-16T14:29:58;7.07;;;5.28;;
21758;SDS011;11041;50.854;20.580;2023-07-16T14:32:25;5.68;;;5.10;;